sensor_id;sensor_type;location;lat;lon;timestamp;temperature;humidity
12481;DHT22;6305;48.398;11.762;2022-12-29T00:01:42;-0.30;99.90
12481;DHT22;6305;48.398;11.762;2022-12-29T00:04:12;-0.30;99.90
12481;DHT22;6305;48.398;11.762;2022-12-29T00:06:39;-0.30;99.90
12481;DHT22;6305;48.398;11.762;2022-12-29T00:09:06;-0.30;99.90
12481;DHT22;6305;48.398;11.762;2022-12-29T00:11:33;-0.30;99.90
12481;DHT22;6305;48.398;11.762;2022-12-29T00:14:02;-0.30;99.90
12481;DHT22;6305;48.398;11.762;2022-12-29T00:16:46;-0.20;99.90
12481;DHT22;6305;48.398;11.762;2022-12-29T00:19:13;0.00;99.90
12481;DHT22;6305;48.398;11.762;2022-12-29T00:21:54;0.20;99.90
12481;DHT22;6305;48.398;11.762;2022-12-29T00:24:39;0.40;99.90
12481;DHT22;6305;48.398;11.762;2022-12-29T00:27:23;0.70;99.90
12481;DHT22;6305;48.398;11.762;2022-12-29T00:30:10;0.80;99.90
12481;DHT22;6305;48.398;11.762;2022-12-29T00:32:55;0.90;99.90
12481;DHT22;6305;48.398;11.762;2022-12-29T00:35:46;1.00;99.90
12481;DHT22;6305;48.398;11.762;2022-12-29T00:38:18;1.10;99.90
12481;DHT22;6305;48.398;11.762;2022-12-29T00:41:04;1.20;99.90
12481;DHT22;6305;48.398;11.762;2022-12-29T00:43:48;1.20;99.90
12481;DHT22;6305;48.398;11.762;2022-12-29T00:46:38;1.30;99.90
12481;DHT22;6305;48.398;11.762;2022-12-29T00:49:06;1.30;99.90
12481;DHT22;6305;48.398;11.762;2022-12-29T00:51:51;1.20;99.90
12481;DHT22;6305;48.398;11.762;2022-12-29T00:54:19;1.10;99.90
12481;DHT22;6305;48.398;11.762;2022-12-29T00:56:47;1.10;99.90
12481;DHT22;6305;48.398;11.762;2022-12-29T00:59:16;1.00;99.90
12481;DHT22;6305;48.398;11.762;2022-12-29T01:01:46;1.10;99.90
12481;DHT22;6305;48.398;11.762;2022-12-29T01:04:14;1.00;99.90
12481;DHT22;6305;48.398;11.762;2022-12-29T01:06:41;0.90;99.90
12481;DHT22;6305;48.398;11.762;2022-12-29T01:09:09;0.80;99.90
12481;DHT22;6305;48.398;11.762;2022-12-29T01:11:54;0.80;99.90
12481;DHT22;6305;48.398;11.762;2022-12-29T01:14:22;0.70;99.90
12481;DHT22;6305;48.398;11.762;2022-12-29T01:16:50;0.50;99.90
12481;DHT22;6305;48.398;11.762;2022-12-29T01:19:18;0.40;99.90
12481;DHT22;6305;48.398;11.762;2022-12-29T01:21:45;0.20;99.90
12481;DHT22;6305;48.398;11.762;2022-12-29T01:24:14;0.10;99.90
12481;DHT22;6305;48.398;11.762;2022-12-29T01:26:41;0.00;99.90
12481;DHT22;6305;48.398;11.762;2022-12-29T01:29:08;-0.20;99.90
12481;DHT22;6305;48.398;11.762;2022-12-29T01:31:35;-0.20;99.90
12481;DHT22;6305;48.398;11.762;2022-12-29T01:34:04;-0.20;99.90
12481;DHT22;6305;48.398;11.762;2022-12-29T01:36:32;-0.20;99.90
12481;DHT22;6305;48.398;11.762;2022-12-29T01:38:59;-0.20;99.90
12481;DHT22;6305;48.398;11.762;2022-12-29T01:41:27;-0.20;99.90
12481;DHT22;6305;48.398;11.762;2022-12-29T01:43:56;-0.20;99.90
12481;DHT22;6305;48.398;11.762;2022-12-29T01:46:26;-0.10;99.90
12481;DHT22;6305;48.398;11.762;2022-12-29T01:49:00;0.20;99.90
12481;DHT22;6305;48.398;11.762;2022-12-29T01:51:32;0.30;99.90
12481;DHT22;6305;48.398;11.762;2022-12-29T01:54:03;0.20;99.90
12481;DHT22;6305;48.398;11.762;2022-12-29T01:56:32;0.40;99.90
12481;DHT22;6305;48.398;11.762;2022-12-29T01:59:03;0.40;99.90
12481;DHT22;6305;48.398;11.762;2022-12-29T02:01:32;0.60;99.90
12481;DHT22;6305;48.398;11.762;2022-12-29T02:04:00;0.50;99.90
12481;DHT22;6305;48.398;11.762;2022-12-29T02:06:33;0.50;99.90
12481;DHT22;6305;48.398;11.762;2022-12-29T02:09:01;0.60;99.90
12481;DHT22;6305;48.398;11.762;2022-12-29T02:11:29;0.60;99.90
12481;DHT22;6305;48.398;11.762;2022-12-29T02:13:56;0.60;99.90
12481;DHT22;6305;48.398;11.762;2022-12-29T02:16:40;0.80;99.90
12481;DHT22;6305;48.398;11.762;2022-12-29T02:22:18;0.90;99.90
12481;DHT22;6305;48.398;11.762;2022-12-29T02:25:00;0.90;99.90
12481;DHT22;6305;48.398;11.762;2022-12-29T02:27:53;1.00;99.90
12481;DHT22;6305;48.398;11.762;2022-12-29T02:30:42;1.10;99.90
12481;DHT22;6305;48.398;11.762;2022-12-29T02:33:21;1.20;99.90
12481;DHT22;6305;48.398;11.762;2022-12-29T02:35:56;1.40;99.90
12481;DHT22;6305;48.398;11.762;2022-12-29T02:38:33;1.50;99.90
12481;DHT22;6305;48.398;11.762;2022-12-29T02:41:08;1.60;99.90
12481;DHT22;6305;48.398;11.762;2022-12-29T02:43:41;1.60;99.90
12481;DHT22;6305;48.398;11.762;2022-12-29T02:46:18;1.60;99.90
12481;DHT22;6305;48.398;11.762;2022-12-29T02:48:50;1.70;99.90
12481;DHT22;6305;48.398;11.762;2022-12-29T02:51:21;1.70;99.90
12481;DHT22;6305;48.398;11.762;2022-12-29T02:53:50;1.80;99.90
12481;DHT22;6305;48.398;11.762;2022-12-29T02:56:37;1.90;99.90
12481;DHT22;6305;48.398;11.762;2022-12-29T02:59:05;2.00;99.90
12481;DHT22;6305;48.398;11.762;2022-12-29T03:01:46;2.20;99.90
12481;DHT22;6305;48.398;11.762;2022-12-29T03:04:39;2.30;99.90
12481;DHT22;6305;48.398;11.762;2022-12-29T03:07:18;2.40;99.90
12481;DHT22;6305;48.398;11.762;2022-12-29T03:09:55;2.50;99.90
12481;DHT22;6305;48.398;11.762;2022-12-29T03:12:30;2.70;99.90
12481;DHT22;6305;48.398;11.762;2022-12-29T03:15:22;2.80;99.90
12481;DHT22;6305;48.398;11.762;2022-12-29T03:18:14;2.80;99.90
12481;DHT22;6305;48.398;11.762;2022-12-29T03:20:47;2.90;99.90
12481;DHT22;6305;48.398;11.762;2022-12-29T03:23:16;2.90;99.90
12481;DHT22;6305;48.398;11.762;2022-12-29T03:25:47;3.00;99.90
12481;DHT22;6305;48.398;11.762;2022-12-29T03:28:22;3.00;99.90
12481;DHT22;6305;48.398;11.762;2022-12-29T03:30:50;3.00;99.90
12481;DHT22;6305;48.398;11.762;2022-12-29T03:33:22;3.10;99.90
12481;DHT22;6305;48.398;11.762;2022-12-29T03:35:53;3.10;99.90
12481;DHT22;6305;48.398;11.762;2022-12-29T03:38:27;3.10;99.90
12481;DHT22;6305;48.398;11.762;2022-12-29T03:40:59;3.10;99.90
12481;DHT22;6305;48.398;11.762;2022-12-29T03:43:29;3.20;99.90
12481;DHT22;6305;48.398;11.762;2022-12-29T03:45:56;3.20;99.90
12481;DHT22;6305;48.398;11.762;2022-12-29T03:48:25;3.30;99.90
12481;DHT22;6305;48.398;11.762;2022-12-29T03:50:54;3.30;99.90
12481;DHT22;6305;48.398;11.762;2022-12-29T03:53:22;3.40;99.90
12481;DHT22;6305;48.398;11.762;2022-12-29T03:55:50;3.40;99.90
12481;DHT22;6305;48.398;11.762;2022-12-29T03:58:17;3.40;99.90
12481;DHT22;6305;48.398;11.762;2022-12-29T04:00:54;3.50;99.90
12481;DHT22;6305;48.398;11.762;2022-12-29T04:03:21;3.60;99.90
12481;DHT22;6305;48.398;11.762;2022-12-29T04:05:51;3.50;99.90
12481;DHT22;6305;48.398;11.762;2022-12-29T04:08:18;3.60;99.90
12481;DHT22;6305;48.398;11.762;2022-12-29T04:10:45;3.60;99.90
12481;DHT22;6305;48.398;11.762;2022-12-29T04:13:15;3.70;99.90
12481;DHT22;6305;48.398;11.762;2022-12-29T04:15:42;3.70;99.90
12481;DHT22;6305;48.398;11.762;2022-12-29T04:18:11;3.80;99.90
12481;DHT22;6305;48.398;11.762;2022-12-29T04:20:38;3.80;99.90
12481;DHT22;6305;48.398;11.762;2022-12-29T04:23:24;3.90;99.90
12481;DHT22;6305;48.398;11.762;2022-12-29T04:25:51;4.00;99.90
12481;DHT22;6305;48.398;11.762;2022-12-29T04:28:19;4.10;99.90
12481;DHT22;6305;48.398;11.762;2022-12-29T04:31:12;4.20;99.90
12481;DHT22;6305;48.398;11.762;2022-12-29T04:33:41;4.30;99.90
12481;DHT22;6305;48.398;11.762;2022-12-29T04:36:09;4.40;99.90
12481;DHT22;6305;48.398;11.762;2022-12-29T04:38:39;4.50;99.90
12481;DHT22;6305;48.398;11.762;2022-12-29T04:41:06;4.50;99.90
12481;DHT22;6305;48.398;11.762;2022-12-29T04:43:35;4.50;99.90
12481;DHT22;6305;48.398;11.762;2022-12-29T04:46:14;4.50;99.90
12481;DHT22;6305;48.398;11.762;2022-12-29T04:49:01;4.60;99.90
12481;DHT22;6305;48.398;11.762;2022-12-29T04:51:54;4.60;99.90
12481;DHT22;6305;48.398;11.762;2022-12-29T04:54:22;4.60;99.90
12481;DHT22;6305;48.398;11.762;2022-12-29T04:56:57;4.60;99.90
12481;DHT22;6305;48.398;11.762;2022-12-29T04:59:24;4.60;99.90
12481;DHT22;6305;48.398;11.762;2022-12-29T05:01:55;4.60;99.90
12481;DHT22;6305;48.398;11.762;2022-12-29T05:04:23;4.60;99.90
12481;DHT22;6305;48.398;11.762;2022-12-29T05:06:50;4.70;99.90
12481;DHT22;6305;48.398;11.762;2022-12-29T05:09:17;4.70;99.90
12481;DHT22;6305;48.398;11.762;2022-12-29T05:11:46;4.70;99.90
12481;DHT22;6305;48.398;11.762;2022-12-29T05:14:13;4.80;99.90
12481;DHT22;6305;48.398;11.762;2022-12-29T05:16:41;4.80;99.90
12481;DHT22;6305;48.398;11.762;2022-12-29T05:19:08;4.80;99.90
12481;DHT22;6305;48.398;11.762;2022-12-29T05:21:36;4.80;99.90
12481;DHT22;6305;48.398;11.762;2022-12-29T05:24:03;4.80;99.90
12481;DHT22;6305;48.398;11.762;2022-12-29T05:26:32;4.80;99.90
12481;DHT22;6305;48.398;11.762;2022-12-29T05:29:33;4.90;99.90
12481;DHT22;6305;48.398;11.762;2022-12-29T05:32:00;4.90;99.90
12481;DHT22;6305;48.398;11.762;2022-12-29T05:34:28;4.90;99.90
12481;DHT22;6305;48.398;11.762;2022-12-29T05:36:55;5.00;99.90
12481;DHT22;6305;48.398;11.762;2022-12-29T05:39:23;5.10;99.90
12481;DHT22;6305;48.398;11.762;2022-12-29T05:41:58;5.10;99.90
12481;DHT22;6305;48.398;11.762;2022-12-29T05:44:36;5.10;99.90
12481;DHT22;6305;48.398;11.762;2022-12-29T05:47:15;5.20;99.90
12481;DHT22;6305;48.398;11.762;2022-12-29T05:49:48;5.30;99.90
12481;DHT22;6305;48.398;11.762;2022-12-29T05:52:34;5.30;99.90
12481;DHT22;6305;48.398;11.762;2022-12-29T05:55:04;5.40;99.90
12481;DHT22;6305;48.398;11.762;2022-12-29T05:57:32;5.40;99.90
12481;DHT22;6305;48.398;11.762;2022-12-29T06:00:11;5.40;99.90
12481;DHT22;6305;48.398;11.762;2022-12-29T06:02:44;5.40;99.90
12481;DHT22;6305;48.398;11.762;2022-12-29T06:05:13;5.40;99.90
12481;DHT22;6305;48.398;11.762;2022-12-29T06:07:40;5.40;99.90
12481;DHT22;6305;48.398;11.762;2022-12-29T06:10:07;5.50;99.90
12481;DHT22;6305;48.398;11.762;2022-12-29T06:12:55;5.50;99.90
12481;DHT22;6305;48.398;11.762;2022-12-29T06:15:24;5.50;99.90
12481;DHT22;6305;48.398;11.762;2022-12-29T06:17:53;5.50;99.90
12481;DHT22;6305;48.398;11.762;2022-12-29T06:20:20;5.50;99.90
12481;DHT22;6305;48.398;11.762;2022-12-29T06:22:47;5.40;99.90
12481;DHT22;6305;48.398;11.762;2022-12-29T06:25:15;5.40;99.90
12481;DHT22;6305;48.398;11.762;2022-12-29T06:27:43;5.30;99.90
12481;DHT22;6305;48.398;11.762;2022-12-29T06:30:11;5.30;99.90
12481;DHT22;6305;48.398;11.762;2022-12-29T06:32:41;5.30;99.90
12481;DHT22;6305;48.398;11.762;2022-12-29T06:35:11;5.40;99.90
12481;DHT22;6305;48.398;11.762;2022-12-29T06:37:44;5.40;99.90
12481;DHT22;6305;48.398;11.762;2022-12-29T06:40:11;5.50;99.90
12481;DHT22;6305;48.398;11.762;2022-12-29T06:43:17;5.50;99.90
12481;DHT22;6305;48.398;11.762;2022-12-29T06:45:57;5.50;99.90
12481;DHT22;6305;48.398;11.762;2022-12-29T06:48:25;5.50;99.90
12481;DHT22;6305;48.398;11.762;2022-12-29T06:50:52;5.50;99.90
12481;DHT22;6305;48.398;11.762;2022-12-29T06:53:19;5.50;99.90
12481;DHT22;6305;48.398;11.762;2022-12-29T06:55:47;5.40;99.90
12481;DHT22;6305;48.398;11.762;2022-12-29T06:58:14;5.40;99.90
12481;DHT22;6305;48.398;11.762;2022-12-29T07:00:41;5.30;99.90
12481;DHT22;6305;48.398;11.762;2022-12-29T07:03:08;5.30;99.90
12481;DHT22;6305;48.398;11.762;2022-12-29T07:05:37;5.40;99.90
12481;DHT22;6305;48.398;11.762;2022-12-29T07:08:04;5.40;99.90
12481;DHT22;6305;48.398;11.762;2022-12-29T07:10:31;5.50;99.90
12481;DHT22;6305;48.398;11.762;2022-12-29T07:12:58;5.60;99.90
12481;DHT22;6305;48.398;11.762;2022-12-29T07:15:25;5.60;99.90
12481;DHT22;6305;48.398;11.762;2022-12-29T07:17:52;5.50;99.90
12481;DHT22;6305;48.398;11.762;2022-12-29T07:20:19;5.60;99.90
12481;DHT22;6305;48.398;11.762;2022-12-29T07:22:47;5.60;99.90
12481;DHT22;6305;48.398;11.762;2022-12-29T07:25:14;5.60;99.90
12481;DHT22;6305;48.398;11.762;2022-12-29T07:27:41;5.70;99.90
12481;DHT22;6305;48.398;11.762;2022-12-29T07:30:12;5.80;99.90
12481;DHT22;6305;48.398;11.762;2022-12-29T07:32:39;5.90;99.90
12481;DHT22;6305;48.398;11.762;2022-12-29T07:35:06;5.90;99.90
12481;DHT22;6305;48.398;11.762;2022-12-29T07:37:34;6.00;99.90
12481;DHT22;6305;48.398;11.762;2022-12-29T07:40:02;6.00;99.90
12481;DHT22;6305;48.398;11.762;2022-12-29T07:42:31;6.10;99.70
12481;DHT22;6305;48.398;11.762;2022-12-29T07:44:59;6.20;99.20
12481;DHT22;6305;48.398;11.762;2022-12-29T07:47:32;6.30;98.60
12481;DHT22;6305;48.398;11.762;2022-12-29T07:49:59;6.40;98.00
12481;DHT22;6305;48.398;11.762;2022-12-29T07:52:27;6.40;97.40
12481;DHT22;6305;48.398;11.762;2022-12-29T07:54:54;6.40;97.10
12481;DHT22;6305;48.398;11.762;2022-12-29T07:57:22;6.40;97.10
12481;DHT22;6305;48.398;11.762;2022-12-29T07:59:49;6.40;96.80
12481;DHT22;6305;48.398;11.762;2022-12-29T08:02:16;6.40;96.60
12481;DHT22;6305;48.398;11.762;2022-12-29T08:04:43;6.50;96.30
12481;DHT22;6305;48.398;11.762;2022-12-29T08:07:10;6.50;96.00
12481;DHT22;6305;48.398;11.762;2022-12-29T08:09:38;6.50;96.00
12481;DHT22;6305;48.398;11.762;2022-12-29T08:12:05;6.60;95.70
12481;DHT22;6305;48.398;11.762;2022-12-29T08:14:33;6.70;95.70
12481;DHT22;6305;48.398;11.762;2022-12-29T08:17:07;6.90;95.40
12481;DHT22;6305;48.398;11.762;2022-12-29T08:19:34;7.00;94.20
12481;DHT22;6305;48.398;11.762;2022-12-29T08:22:01;7.10;93.20
12481;DHT22;6305;48.398;11.762;2022-12-29T08:24:28;7.30;92.30
12481;DHT22;6305;48.398;11.762;2022-12-29T08:26:55;7.50;91.70
12481;DHT22;6305;48.398;11.762;2022-12-29T08:29:22;7.60;91.20
12481;DHT22;6305;48.398;11.762;2022-12-29T08:31:50;7.80;90.30
12481;DHT22;6305;48.398;11.762;2022-12-29T08:34:18;8.10;89.80
12481;DHT22;6305;48.398;11.762;2022-12-29T08:36:45;8.30;88.70
12481;DHT22;6305;48.398;11.762;2022-12-29T08:39:12;8.50;87.50
12481;DHT22;6305;48.398;11.762;2022-12-29T08:41:39;8.70;86.20
12481;DHT22;6305;48.398;11.762;2022-12-29T08:44:07;9.10;84.50
12481;DHT22;6305;48.398;11.762;2022-12-29T08:46:34;9.60;81.80
12481;DHT22;6305;48.398;11.762;2022-12-29T08:49:03;9.90;78.70
12481;DHT22;6305;48.398;11.762;2022-12-29T08:51:31;10.10;75.30
12481;DHT22;6305;48.398;11.762;2022-12-29T08:54:01;10.20;74.40
12481;DHT22;6305;48.398;11.762;2022-12-29T08:56:28;11.30;73.00
12481;DHT22;6305;48.398;11.762;2022-12-29T08:58:57;12.30;69.00
12481;DHT22;6305;48.398;11.762;2022-12-29T09:01:25;12.90;64.10
12481;DHT22;6305;48.398;11.762;2022-12-29T09:03:53;13.40;61.20
12481;DHT22;6305;48.398;11.762;2022-12-29T09:06:22;14.60;59.40
12481;DHT22;6305;48.398;11.762;2022-12-29T09:08:49;15.20;55.80
12481;DHT22;6305;48.398;11.762;2022-12-29T09:11:19;15.70;53.90
12481;DHT22;6305;48.398;11.762;2022-12-29T09:13:47;16.60;52.20
12481;DHT22;6305;48.398;11.762;2022-12-29T09:16:15;17.20;48.80
12481;DHT22;6305;48.398;11.762;2022-12-29T09:18:43;17.60;47.50
12481;DHT22;6305;48.398;11.762;2022-12-29T09:21:11;18.50;47.20
12481;DHT22;6305;48.398;11.762;2022-12-29T09:23:40;19.30;45.90
12481;DHT22;6305;48.398;11.762;2022-12-29T09:26:07;19.10;44.60
12481;DHT22;6305;48.398;11.762;2022-12-29T09:28:34;20.00;44.70
12481;DHT22;6305;48.398;11.762;2022-12-29T09:31:03;21.40;43.00
12481;DHT22;6305;48.398;11.762;2022-12-29T09:33:30;21.70;40.80
12481;DHT22;6305;48.398;11.762;2022-12-29T09:35:58;22.80;39.50
12481;DHT22;6305;48.398;11.762;2022-12-29T09:38:26;23.90;37.50
12481;DHT22;6305;48.398;11.762;2022-12-29T09:40:59;25.00;35.60
12481;DHT22;6305;48.398;11.762;2022-12-29T09:46:24;25.30;32.30
12481;DHT22;6305;48.398;11.762;2022-12-29T09:48:59;24.30;32.40
12481;DHT22;6305;48.398;11.762;2022-12-29T09:51:31;22.40;32.90
12481;DHT22;6305;48.398;11.762;2022-12-29T09:54:03;20.10;34.40
12481;DHT22;6305;48.398;11.762;2022-12-29T09:56:32;18.40;36.80
12481;DHT22;6305;48.398;11.762;2022-12-29T09:59:04;17.10;39.10
12481;DHT22;6305;48.398;11.762;2022-12-29T10:01:40;15.90;40.90
12481;DHT22;6305;48.398;11.762;2022-12-29T10:04:08;15.20;42.60
12481;DHT22;6305;48.398;11.762;2022-12-29T10:06:39;14.70;43.90
12481;DHT22;6305;48.398;11.762;2022-12-29T10:09:15;14.40;45.10
12481;DHT22;6305;48.398;11.762;2022-12-29T10:11:59;14.00;46.50
12481;DHT22;6305;48.398;11.762;2022-12-29T10:14:40;13.90;46.80
12481;DHT22;6305;48.398;11.762;2022-12-29T10:17:24;13.90;47.30
12481;DHT22;6305;48.398;11.762;2022-12-29T10:23:02;14.10;48.30
12481;DHT22;6305;48.398;11.762;2022-12-29T10:25:34;14.50;48.20
12481;DHT22;6305;48.398;11.762;2022-12-29T10:28:09;14.50;47.40
12481;DHT22;6305;48.398;11.762;2022-12-29T10:30:40;14.40;47.60
12481;DHT22;6305;48.398;11.762;2022-12-29T10:33:13;14.20;47.90
12481;DHT22;6305;48.398;11.762;2022-12-29T10:35:44;14.20;48.40
12481;DHT22;6305;48.398;11.762;2022-12-29T10:38:18;14.30;48.60
12481;DHT22;6305;48.398;11.762;2022-12-29T10:40:51;14.20;47.80
12481;DHT22;6305;48.398;11.762;2022-12-29T10:43:25;14.20;47.80
12481;DHT22;6305;48.398;11.762;2022-12-29T10:45:53;14.30;47.70
12481;DHT22;6305;48.398;11.762;2022-12-29T10:48:23;14.40;46.90
12481;DHT22;6305;48.398;11.762;2022-12-29T10:50:54;14.70;46.00
12481;DHT22;6305;48.398;11.762;2022-12-29T10:53:27;15.40;45.60
12481;DHT22;6305;48.398;11.762;2022-12-29T10:56:01;16.60;44.30
12481;DHT22;6305;48.398;11.762;2022-12-29T10:58:32;17.30;42.20
12481;DHT22;6305;48.398;11.762;2022-12-29T11:00:59;17.60;41.10
12481;DHT22;6305;48.398;11.762;2022-12-29T11:03:50;18.30;40.60
12481;DHT22;6305;48.398;11.762;2022-12-29T11:06:24;18.30;39.40
12481;DHT22;6305;48.398;11.762;2022-12-29T11:08:55;18.30;39.10
12481;DHT22;6305;48.398;11.762;2022-12-29T11:11:32;19.00;39.10
12481;DHT22;6305;48.398;11.762;2022-12-29T11:14:08;19.80;38.50
12481;DHT22;6305;48.398;11.762;2022-12-29T11:16:37;20.80;37.30
12481;DHT22;6305;48.398;11.762;2022-12-29T11:19:05;21.60;34.20
12481;DHT22;6305;48.398;11.762;2022-12-29T11:21:33;21.10;33.30
12481;DHT22;6305;48.398;11.762;2022-12-29T11:24:18;20.50;33.30
12481;DHT22;6305;48.398;11.762;2022-12-29T11:26:45;18.90;34.00
12481;DHT22;6305;48.398;11.762;2022-12-29T11:29:28;17.70;35.90
12481;DHT22;6305;48.398;11.762;2022-12-29T11:31:56;16.50;37.30
12481;DHT22;6305;48.398;11.762;2022-12-29T11:34:26;15.90;38.80
12481;DHT22;6305;48.398;11.762;2022-12-29T11:37:00;15.60;40.00
12481;DHT22;6305;48.398;11.762;2022-12-29T11:39:36;15.40;40.50
12481;DHT22;6305;48.398;11.762;2022-12-29T11:42:06;15.40;40.80
12481;DHT22;6305;48.398;11.762;2022-12-29T11:44:43;15.80;40.80
12481;DHT22;6305;48.398;11.762;2022-12-29T11:47:19;16.50;40.10
12481;DHT22;6305;48.398;11.762;2022-12-29T11:49:50;16.50;39.60
12481;DHT22;6305;48.398;11.762;2022-12-29T11:52:21;16.30;39.40
12481;DHT22;6305;48.398;11.762;2022-12-29T11:54:50;16.00;39.80
12481;DHT22;6305;48.398;11.762;2022-12-29T11:57:18;16.70;40.60
12481;DHT22;6305;48.398;11.762;2022-12-29T11:59:51;17.90;39.90
12481;DHT22;6305;48.398;11.762;2022-12-29T12:02:42;18.80;38.20
12481;DHT22;6305;48.398;11.762;2022-12-29T12:05:22;19.70;37.00
12481;DHT22;6305;48.398;11.762;2022-12-29T12:07:54;20.80;35.60
12481;DHT22;6305;48.398;11.762;2022-12-29T12:10:25;22.60;33.50
12481;DHT22;6305;48.398;11.762;2022-12-29T12:13:02;23.70;32.10
12481;DHT22;6305;48.398;11.762;2022-12-29T12:15:36;25.20;31.10
12481;DHT22;6305;48.398;11.762;2022-12-29T12:18:11;26.10;29.20
12481;DHT22;6305;48.398;11.762;2022-12-29T12:20:45;26.50;28.60
12481;DHT22;6305;48.398;11.762;2022-12-29T12:23:27;26.60;28.30
12481;DHT22;6305;48.398;11.762;2022-12-29T12:26:04;26.90;28.10
12481;DHT22;6305;48.398;11.762;2022-12-29T12:28:39;26.70;27.60
12481;DHT22;6305;48.398;11.762;2022-12-29T12:31:17;26.20;28.50
12481;DHT22;6305;48.398;11.762;2022-12-29T12:33:47;26.60;28.70
12481;DHT22;6305;48.398;11.762;2022-12-29T12:36:43;26.70;28.20
12481;DHT22;6305;48.398;11.762;2022-12-29T12:39:23;26.90;27.80
12481;DHT22;6305;48.398;11.762;2022-12-29T12:42:00;26.20;27.80
12481;DHT22;6305;48.398;11.762;2022-12-29T12:44:36;25.90;28.40
12481;DHT22;6305;48.398;11.762;2022-12-29T12:47:28;24.60;28.90
12481;DHT22;6305;48.398;11.762;2022-12-29T12:50:19;23.00;30.00
12481;DHT22;6305;48.398;11.762;2022-12-29T12:53:20;21.10;32.50
12481;DHT22;6305;48.398;11.762;2022-12-29T12:56:07;20.00;34.60
12481;DHT22;6305;48.398;11.762;2022-12-29T12:58:45;20.00;36.00
12481;DHT22;6305;48.398;11.762;2022-12-29T13:01:28;19.60;36.10
12481;DHT22;6305;48.398;11.762;2022-12-29T13:06:57;18.90;37.40
12481;DHT22;6305;48.398;11.762;2022-12-29T13:09:45;18.00;38.50
12481;DHT22;6305;48.398;11.762;2022-12-29T13:12:25;16.90;39.90
12481;DHT22;6305;48.398;11.762;2022-12-29T13:15:08;16.20;41.90
12481;DHT22;6305;48.398;11.762;2022-12-29T13:17:44;15.60;43.30
12481;DHT22;6305;48.398;11.762;2022-12-29T13:20:24;15.10;44.40
12481;DHT22;6305;48.398;11.762;2022-12-29T13:22:58;14.60;45.60
12481;DHT22;6305;48.398;11.762;2022-12-29T13:25:33;14.40;46.40
12481;DHT22;6305;48.398;11.762;2022-12-29T13:28:06;14.10;47.50
12481;DHT22;6305;48.398;11.762;2022-12-29T13:30:42;13.90;48.80
12481;DHT22;6305;48.398;11.762;2022-12-29T13:33:21;13.80;48.80
12481;DHT22;6305;48.398;11.762;2022-12-29T13:36:07;13.70;49.40
12481;DHT22;6305;48.398;11.762;2022-12-29T13:38:39;13.70;49.70
12481;DHT22;6305;48.398;11.762;2022-12-29T13:41:16;13.60;50.20
12481;DHT22;6305;48.398;11.762;2022-12-29T13:43:47;13.50;50.90
12481;DHT22;6305;48.398;11.762;2022-12-29T13:46:19;13.40;51.40
12481;DHT22;6305;48.398;11.762;2022-12-29T13:48:51;13.20;52.20
12481;DHT22;6305;48.398;11.762;2022-12-29T13:51:21;13.10;53.90
12481;DHT22;6305;48.398;11.762;2022-12-29T13:54:01;13.00;55.20
12481;DHT22;6305;48.398;11.762;2022-12-29T13:56:35;13.00;56.30
12481;DHT22;6305;48.398;11.762;2022-12-29T13:59:12;12.90;56.90
12481;DHT22;6305;48.398;11.762;2022-12-29T14:01:46;13.00;57.50
12481;DHT22;6305;48.398;11.762;2022-12-29T14:04:22;12.90;57.60
12481;DHT22;6305;48.398;11.762;2022-12-29T14:07:01;12.90;58.00
12481;DHT22;6305;48.398;11.762;2022-12-29T14:09:43;12.90;58.30
12481;DHT22;6305;48.398;11.762;2022-12-29T14:12:32;12.80;58.70
12481;DHT22;6305;48.398;11.762;2022-12-29T14:15:21;12.70;59.60
12481;DHT22;6305;48.398;11.762;2022-12-29T14:18:13;12.50;59.60
12481;DHT22;6305;48.398;11.762;2022-12-29T14:20:51;12.40;60.40
12481;DHT22;6305;48.398;11.762;2022-12-29T14:23:35;12.30;61.10
12481;DHT22;6305;48.398;11.762;2022-12-29T14:26:18;12.10;61.70
12481;DHT22;6305;48.398;11.762;2022-12-29T14:29:16;12.00;62.70
12481;DHT22;6305;48.398;11.762;2022-12-29T14:32:36;11.80;63.40
12481;DHT22;6305;48.398;11.762;2022-12-29T14:35:39;11.70;64.80
12481;DHT22;6305;48.398;11.762;2022-12-29T14:38:14;11.70;65.70
12481;DHT22;6305;48.398;11.762;2022-12-29T14:40:43;11.60;66.50
12481;DHT22;6305;48.398;11.762;2022-12-29T14:43:20;11.60;67.20
12481;DHT22;6305;48.398;11.762;2022-12-29T14:45:54;11.50;67.50
12481;DHT22;6305;48.398;11.762;2022-12-29T14:48:36;11.50;67.80
12481;DHT22;6305;48.398;11.762;2022-12-29T14:51:26;11.50;68.30
12481;DHT22;6305;48.398;11.762;2022-12-29T14:53:54;11.40;68.80
12481;DHT22;6305;48.398;11.762;2022-12-29T14:56:27;11.50;69.30
12481;DHT22;6305;48.398;11.762;2022-12-29T14:58:58;11.50;69.60
12481;DHT22;6305;48.398;11.762;2022-12-29T15:01:37;11.50;69.80
12481;DHT22;6305;48.398;11.762;2022-12-29T15:04:14;11.40;70.50
12481;DHT22;6305;48.398;11.762;2022-12-29T15:06:42;11.20;71.40
12481;DHT22;6305;48.398;11.762;2022-12-29T15:09:27;11.10;72.40
12481;DHT22;6305;48.398;11.762;2022-12-29T15:11:59;10.90;73.60
12481;DHT22;6305;48.398;11.762;2022-12-29T15:14:35;10.70;75.50
12481;DHT22;6305;48.398;11.762;2022-12-29T15:17:10;10.60;77.40
12481;DHT22;6305;48.398;11.762;2022-12-29T15:19:37;10.40;79.90
12481;DHT22;6305;48.398;11.762;2022-12-29T15:22:05;10.30;81.50
12481;DHT22;6305;48.398;11.762;2022-12-29T15:24:41;10.20;83.70
12481;DHT22;6305;48.398;11.762;2022-12-29T15:27:13;10.10;86.80
12481;DHT22;6305;48.398;11.762;2022-12-29T15:29:43;10.00;89.00
12481;DHT22;6305;48.398;11.762;2022-12-29T15:32:17;9.90;90.40
12481;DHT22;6305;48.398;11.762;2022-12-29T15:34:46;9.90;91.10
12481;DHT22;6305;48.398;11.762;2022-12-29T15:37:22;9.90;91.50
12481;DHT22;6305;48.398;11.762;2022-12-29T15:39:50;9.80;92.10
12481;DHT22;6305;48.398;11.762;2022-12-29T15:42:32;9.80;92.80
12481;DHT22;6305;48.398;11.762;2022-12-29T15:45:04;9.70;93.10
12481;DHT22;6305;48.398;11.762;2022-12-29T15:47:31;9.70;93.40
12481;DHT22;6305;48.398;11.762;2022-12-29T15:50:02;9.70;93.90
12481;DHT22;6305;48.398;11.762;2022-12-29T15:52:31;9.70;94.30
12481;DHT22;6305;48.398;11.762;2022-12-29T15:55:00;9.60;94.80
12481;DHT22;6305;48.398;11.762;2022-12-29T15:57:31;9.60;95.30
12481;DHT22;6305;48.398;11.762;2022-12-29T16:00:04;9.60;95.60
12481;DHT22;6305;48.398;11.762;2022-12-29T16:02:48;9.70;96.20
12481;DHT22;6305;48.398;11.762;2022-12-29T16:05:16;9.70;96.40
12481;DHT22;6305;48.398;11.762;2022-12-29T16:07:54;9.60;96.30
12481;DHT22;6305;48.398;11.762;2022-12-29T16:10:30;9.60;96.70
12481;DHT22;6305;48.398;11.762;2022-12-29T16:13:28;9.50;97.10
12481;DHT22;6305;48.398;11.762;2022-12-29T16:16:01;9.30;97.80
12481;DHT22;6305;48.398;11.762;2022-12-29T16:18:38;9.20;98.60
12481;DHT22;6305;48.398;11.762;2022-12-29T16:21:19;9.10;99.30
12481;DHT22;6305;48.398;11.762;2022-12-29T16:24:01;8.90;99.90
12481;DHT22;6305;48.398;11.762;2022-12-29T16:26:29;8.80;99.90
12481;DHT22;6305;48.398;11.762;2022-12-29T16:28:59;8.60;99.90
12481;DHT22;6305;48.398;11.762;2022-12-29T16:31:50;8.50;99.90